Time;durP1;ratioP1;P1;durP2;ratioP2;P2;SDS_P1;SDS_P2;PMS_P1;PMS_P2;Temp;Humidity;BMP_temperature;BMP_pressure;BME280_temperature;BME280_humidity;BME280_pressure;Samples;Min_cycle;Max_cycle;Signal;HPM_P1;HPM_P2
2022/08/31 00:05:09;;;;;;;1999.90;999.90;;;;;;;20.84;62.63;99368.97;8369341;28;20052;-79
2022/08/31 00:09:11;;;;;;;1999.90;999.90;;;;;;;20.82;62.57;99369.03;8341398;28;20060;-79
2022/08/31 00:13:13;;;;;;;1999.90;999.90;;;;;;;20.85;62.81;99378.59;8325682;28;20049;-79
2022/08/31 00:17:15;;;;;;;1999.90;999.90;;;;;;;20.87;63.76;99379.38;8354793;28;20064;-79
2022/08/31 00:21:18;;;;;;;1999.90;999.90;;;;;;;20.81;65.08;99389.28;8358016;28;20128;-79
2022/08/31 00:25:20;;;;;;;1999.90;999.90;;;;;;;20.81;65.25;99386.63;8329983;28;20064;-79
2022/08/31 00:29:21;;;;;;;1999.90;999.90;;;;;;;20.80;66.00;99377.00;8323457;28;20135;-79
2022/08/31 00:33:23;;;;;;;1999.90;999.90;;;;;;;20.76;66.98;99379.88;8304436;28;20048;-79
2022/08/31 00:37:25;;;;;;;1999.90;999.90;;;;;;;20.73;67.40;99386.16;8320177;28;20749;-79
2022/08/31 00:41:28;;;;;;;1999.90;999.90;;;;;;;20.70;67.85;99394.22;8308055;28;20128;-79
2022/08/31 00:45:30;;;;;;;1999.90;999.90;;;;;;;20.67;68.15;99386.44;8288888;28;20471;-79
2022/08/31 00:49:37;;;;;;;1999.90;999.90;;;;;;;20.66;68.00;99390.00;8308279;28;20053;-79
2022/08/31 00:53:38;;;;;;;1999.90;999.90;;;;;;;20.72;68.15;99389.72;8328514;28;20124;-79
2022/08/31 00:57:43;;;;;;;1999.90;999.90;;;;;;;20.77;68.01;99400.06;8307999;28;20045;-79
2022/08/31 01:01:45;;;;;;;1999.90;999.90;;;;;;;20.77;68.57;99398.28;8311563;28;20148;-79
2022/08/31 01:05:49;;;;;;;1999.90;999.90;;;;;;;20.68;68.74;99411.91;8316952;28;20449;-79
2022/08/31 01:09:51;;;;;;;1999.90;999.90;;;;;;;20.69;68.68;99416.25;8287719;28;20053;-79
2022/08/31 01:13:57;;;;;;;1999.90;999.90;;;;;;;20.69;68.55;99418.03;8323287;28;20526;-79
2022/08/31 01:18:05;;;;;;;1999.90;999.90;;;;;;;20.66;68.23;99426.94;8321577;28;20129;-79
2022/08/31 01:22:18;;;;;;;1999.90;999.90;;;;;;;20.59;68.67;99419.38;8323659;28;20041;-78
2022/08/31 01:26:24;;;;;;;1999.90;999.90;;;;;;;20.47;68.99;99420.78;8297717;28;20041;-79
2022/08/31 01:30:25;;;;;;;1999.90;999.90;;;;;;;20.47;69.09;99420.78;8319737;28;20041;-78
2022/08/31 01:34:27;;;;;;;1999.90;999.90;;;;;;;20.43;69.95;99416.53;8306597;28;20107;-79
2022/08/31 01:38:30;;;;;;;1999.90;999.90;;;;;;;20.40;70.20;99414.88;8310113;28;20053;-79
2022/08/31 01:42:32;;;;;;;1999.90;999.90;;;;;;;20.40;70.08;99422.78;8300783;28;20117;-79
2022/08/31 01:46:34;;;;;;;1999.90;999.90;;;;;;;20.36;70.07;99421.22;8318245;28;20690;-78
2022/08/31 01:50:36;;;;;;;1999.90;999.90;;;;;;;20.33;70.44;99428.41;8324877;28;20041;-79
2022/08/31 01:54:38;;;;;;;1999.90;999.90;;;;;;;20.28;71.29;99422.44;8302780;28;20137;-78
2022/08/31 01:58:40;;;;;;;1999.90;999.90;;;;;;;20.24;71.37;99429.66;8283775;28;20065;-79
2022/08/31 02:02:41;;;;;;;1999.90;999.90;;;;;;;20.25;70.99;99419.97;8317418;28;20073;-78
2022/08/31 02:06:47;;;;;;;1999.90;999.90;;;;;;;20.17;70.81;99417.66;8310739;28;20136;-79
2022/08/31 02:10:49;;;;;;;1999.90;999.90;;;;;;;20.11;71.12;99416.16;8304087;28;20038;-79
2022/08/31 02:14:51;;;;;;;1999.90;999.90;;;;;;;20.13;71.45;99414.31;8314772;28;20046;-79
2022/08/31 02:18:52;;;;;;;1999.90;999.90;;;;;;;20.14;71.64;99415.16;8304132;28;20072;-79
2022/08/31 02:22:54;;;;;;;1999.90;999.90;;;;;;;20.01;71.97;99416.59;8323392;28;20045;-79
2022/08/31 02:26:56;;;;;;;1999.90;999.90;;;;;;;19.91;72.50;99424.03;8316411;28;20093;-79
2022/08/31 02:30:57;;;;;;;1999.90;999.90;;;;;;;19.82;72.86;99421.78;8303696;28;20061;-79
2022/08/31 02:34:59;;;;;;;1999.90;999.90;;;;;;;19.77;73.45;99421.13;8273596;28;20201;-78
2022/08/31 02:39:00;;;;;;;1999.90;999.90;;;;;;;19.77;73.42;99408.81;8288880;28;20045;-79
2022/08/31 02:43:04;;;;;;;1999.90;999.90;;;;;;;19.81;73.35;99410.41;8285663;28;20077;-79
2022/08/31 02:47:06;;;;;;;1999.90;999.90;;;;;;;19.83;73.67;99411.19;8285227;28;20041;-79
2022/08/31 02:51:08;;;;;;;1999.90;999.90;;;;;;;19.85;73.25;99411.97;8286301;28;20042;-79
2022/08/31 02:55:10;;;;;;;1999.90;999.90;;;;;;;19.86;73.90;99416.31;8311508;28;20049;-79
2022/08/31 02:59:12;;;;;;;1999.90;999.90;;;;;;;19.81;73.72;99420.06;8282110;28;20038;-79
2022/08/31 03:03:14;;;;;;;1999.90;999.90;;;;;;;19.75;73.71;99418.56;8291560;28;20761;-79
2022/08/31 03:07:15;;;;;;;;;;;;;;;19.64;74.10;99414.66;8284225;28;20472;-79
2022/08/31 03:11:18;;;;;;;;;;;;;;;19.53;74.72;99408.00;8310899;28;21323;-79
2022/08/31 03:15:22;;;;;;;1999.90;999.90;;;;;;;19.55;74.90;99415.88;8292022;28;19932;-79
2022/08/31 03:19:24;;;;;;;1999.90;999.90;;;;;;;19.55;74.64;99415.88;8293934;28;20060;-79
2022/08/31 03:23:25;;;;;;;1999.90;999.90;;;;;;;19.55;75.02;99418.50;8288359;28;20158;-79
2022/08/31 03:27:30;;;;;;;1999.90;999.90;;;;;;;19.54;74.87;99411.50;8294884;28;20092;-79
2022/08/31 03:31:32;;;;;;;1999.90;999.90;;;;;;;19.45;75.37;99411.88;8274706;28;20386;-79
2022/08/31 03:35:34;;;;;;;1999.90;999.90;;;;;;;19.43;75.64;99416.34;8317821;28;20058;-79
2022/08/31 03:39:36;;;;;;;1999.90;999.90;;;;;;;19.43;76.12;99405.81;8324550;28;20516;-79
2022/08/31 03:43:38;;;;;;;1999.90;999.90;;;;;;;19.42;76.04;99423.38;8309279;28;20077;-79
2022/08/31 03:47:40;;;;;;;1999.90;999.90;;;;;;;19.45;75.80;99425.03;8304325;28;20072;-79
2022/08/31 03:51:45;;;;;;;1999.90;999.90;;;;;;;19.42;75.87;99433.91;8316588;28;20067;-79
2022/08/31 03:55:47;;;;;;;1999.90;999.90;;;;;;;19.38;76.00;99434.09;8311100;28;20049;-79
2022/08/31 03:59:52;;;;;;;1999.90;999.90;;;;;;;19.37;76.18;99440.25;8322789;28;20462;-79
2022/08/31 04:03:54;;;;;;;1999.90;999.90;;;;;;;19.28;76.73;99438.88;8317298;28;20111;-79
2022/08/31 04:07:56;;;;;;;1999.90;999.90;;;;;;;19.21;76.76;99440.00;8288680;28;20068;-79
2022/08/31 04:11:57;;;;;;;1999.90;999.90;;;;;;;19.14;77.51;99441.16;8293692;28;20437;-79
2022/08/31 04:15:59;;;;;;;1999.90;999.90;;;;;;;19.15;77.33;99448.16;8308055;28;20061;-79
2022/08/31 04:20:02;;;;;;;1999.90;999.90;;;;;;;19.16;77.43;99449.88;8293368;28;20037;-79
2022/08/31 04:24:03;;;;;;;1999.90;999.90;;;;;;;19.13;77.68;99445.56;8294657;28;20164;-79
2022/08/31 04:28:07;;;;;;;1999.90;999.90;;;;;;;19.12;77.99;99449.13;8326730;28;20124;-79
2022/08/31 04:32:09;;;;;;;1999.90;999.90;;;;;;;19.16;77.88;99453.34;8310995;28;20103;-79
2022/08/31 04:36:15;;;;;;;1999.90;999.90;;;;;;;19.11;77.96;99455.31;8296392;28;20053;-80
2022/08/31 04:40:18;;;;;;;1999.90;999.90;;;;;;;19.07;78.87;99452.88;8310182;28;20497;-79
2022/08/31 04:44:20;;;;;;;1999.90;999.90;;;;;;;18.99;79.90;99455.75;8301519;28;20463;-79
2022/08/31 04:48:22;;;;;;;1999.90;999.90;;;;;;;18.99;80.24;99463.66;8304062;28;20083;-79
2022/08/31 04:52:23;;;;;;;1999.90;999.90;;;;;;;19.00;80.08;99460.97;8306171;28;20080;-78
2022/08/31 04:56:31;;;;;;;1999.90;999.90;;;;;;;19.02;79.95;99453.88;8308421;28;20053;-79
2022/08/31 05:00:33;;;;;;;1999.90;999.90;;;;;;;19.02;79.48;99456.50;8299465;28;20148;-79
2022/08/31 05:04:34;;;;;;;1999.90;999.90;;;;;;;18.99;79.72;99464.53;8322608;28;20054;-79
2022/08/31 05:08:36;;;;;;;1999.90;999.90;;;;;;;18.94;80.51;99469.09;8307954;28;20045;-79
2022/08/31 05:12:38;;;;;;;1999.90;999.90;;;;;;;18.92;80.10;99475.34;8310934;28;20071;-80
2022/08/31 05:16:41;;;;;;;1999.90;999.90;;;;;;;18.93;79.98;99482.31;8300886;28;20064;-79
2022/08/31 05:20:42;;;;;;;1999.90;999.90;;;;;;;18.85;79.87;99474.72;8323599;28;20049;-79
2022/08/31 05:24:44;;;;;;;1999.90;999.90;;;;;;;18.88;79.79;99482.50;8279803;28;20073;-79
2022/08/31 05:28:45;;;;;;;1999.90;999.90;;;;;;;18.94;80.13;99490.16;8287592;28;20045;-78
2022/08/31 05:32:47;;;;;;;1999.90;999.90;;;;;;;18.99;80.08;99489.97;8312935;28;20139;-79
2022/08/31 05:36:53;;;;;;;1999.90;999.90;;;;;;;19.04;79.83;99488.06;8302697;28;20173;-79
2022/08/31 05:40:57;;;;;;;1999.90;999.90;;;;;;;19.12;79.09;99499.13;8301098;28;20387;-78
2022/08/31 05:44:59;;;;;;;1999.90;999.90;;;;;;;19.20;78.97;99501.47;8321656;28;20049;-77
2022/08/31 05:49:00;;;;;;;1999.90;999.90;;;;;;;19.27;79.27;99498.56;8301317;28;20065;-78
2022/08/31 05:53:02;;;;;;;;;;;;;;;19.34;79.04;99493.91;8288867;28;20038;-78
2022/08/31 05:57:04;;;;;;;1999.90;999.90;;;;;;;19.45;78.20;99504.03;8301975;28;20011;-78
2022/08/31 06:01:23;;;;;;;1999.90;999.90;;;;;;;19.58;77.16;99508.81;8312559;28;20076;-78
2022/08/31 06:05:27;;;;;;;1999.90;999.90;;;;;;;19.71;77.20;99508.31;8305017;28;20474;-78
2022/08/31 06:09:29;;;;;;;1999.90;999.90;;;;;;;19.79;75.76;99501.84;8299827;28;20390;-78
2022/08/31 06:13:31;;;;;;;1999.90;999.90;;;;;;;19.90;74.82;99504.88;8311694;28;20129;-78
2022/08/31 06:17:33;;;;;;;1999.90;999.90;;;;;;;20.01;73.86;99500.94;8300847;28;20080;-78
2022/08/31 06:21:41;;;;;;;1999.90;999.90;;;;;;;20.10;73.45;99504.06;8312318;28;20803;-78
2022/08/31 06:25:51;;;;;;;1999.90;999.90;;;;;;;20.21;73.29;99507.09;8286474;28;20049;-78
2022/08/31 06:29:52;;;;;;;1999.90;999.90;;;;;;;20.32;72.20;99505.81;8293222;28;20128;-78
2022/08/31 06:33:55;;;;;;;1999.90;999.90;;;;;;;20.46;71.01;99514.00;8288773;28;20086;-78
2022/08/31 06:37:57;;;;;;;1999.90;999.90;;;;;;;20.59;69.98;99515.19;8316018;28;20049;-78
2022/08/31 06:41:58;;;;;;;1999.90;999.90;;;;;;;20.74;69.04;99521.59;8283062;28;20033;-78
2022/08/31 06:46:01;;;;;;;1999.90;999.90;;;;;;;20.89;68.21;99526.22;8292585;28;20069;-77
2022/08/31 06:50:03;;;;;;;1999.90;999.90;;;;;;;21.04;67.45;99540.50;8304868;28;20056;-78
2022/08/31 06:54:06;;;;;;;;;;;;;;;21.12;66.25;99549.78;8317557;28;20199;-78
2022/08/31 06:58:28;;;;;;;1999.90;999.90;;;;;;;21.15;65.82;99555.84;8296219;28;19929;-77
2022/08/31 07:02:29;;;;;;;1999.90;999.90;;;;;;;21.13;65.04;99561.22;8299080;28;20049;-77
2022/08/31 07:06:35;;;;;;;1999.90;999.90;;;;;;;21.13;64.88;99561.22;8282224;28;20038;-78
2022/08/31 07:10:36;;;;;;;1999.90;999.90;;;;;;;21.14;64.21;99568.19;8299596;28;20038;-78
2022/08/31 07:14:39;;;;;;;1999.90;999.90;;;;;;;21.15;63.43;99558.50;8319273;28;20084;-79
2022/08/31 07:19:02;;;;;;;1999.90;999.90;;;;;;;21.23;63.16;99567.81;8296367;28;20671;-79
2022/08/31 07:23:12;;;;;;;1999.90;999.90;;;;;;;21.33;62.89;99566.47;8297923;28;20103;-79
2022/08/31 07:27:29;;;;;;;1999.90;999.90;;;;;;;21.49;62.13;99569.28;8285658;28;20479;-79
2022/08/31 07:31:43;;;;;;;1999.90;999.90;;;;;;;21.64;61.08;99571.22;8299430;28;20061;-79
2022/08/31 07:36:16;;;;;;;1999.90;999.90;;;;;;;21.68;59.09;99572.78;8302545;28;20053;-79
2022/08/31 07:44:51;;;;;;;1999.90;999.90;;;;;;;21.73;57.16;99569.09;8321038;28;20049;-79
2022/08/31 07:49:05;;;;;;;1999.90;999.90;;;;;;;21.75;56.76;99569.88;8303690;28;20045;-79
2022/08/31 07:53:32;;;;;;;1999.90;999.90;;;;;;;21.83;56.39;99568.56;8311667;28;20053;-79
2022/08/31 07:57:58;;;;;;;1999.90;999.90;;;;;;;22.35;55.13;99576.63;8320975;28;20095;-80
2022/08/31 08:02:37;;;;;;;1999.90;999.90;;;;;;;22.52;54.04;99578.44;8310664;28;20046;-79
2022/08/31 08:06:41;;;;;;;1999.90;999.90;;;;;;;22.55;53.43;99576.50;8299029;28;20929;-78
2022/08/31 08:10:46;;;;;;;1999.90;999.90;;;;;;;22.61;53.18;99567.38;8302858;28;20119;-77
2022/08/31 08:14:58;;;;;;;1999.90;999.90;;;;;;;22.69;53.08;99567.84;8304194;28;20041;-77
2022/08/31 08:19:00;;;;;;;1999.90;999.90;;;;;;;22.81;52.35;99561.09;8299906;28;20056;-77
2022/08/31 08:23:05;;;;;;;;;;;;;;;22.80;52.29;99577.88;8322449;28;20033;-78
2022/08/31 08:27:12;;;;;;;1999.90;999.90;;;;;;;22.97;51.68;99587.63;8302989;28;20007;-77
2022/08/31 08:31:17;;;;;;;1999.90;999.90;;;;;;;23.36;51.25;99592.66;8314271;28;20049;-78
2022/08/31 08:35:19;;;;;;;1999.90;999.90;;;;;;;23.95;49.64;99593.84;8319290;28;20069;-77
2022/08/31 08:39:20;;;;;;;1999.90;999.90;;;;;;;24.36;48.94;99597.69;8302132;28;20041;-77
2022/08/31 08:43:29;;;;;;;1999.90;999.90;;;;;;;24.37;47.77;99611.81;8301878;28;20037;-77
2022/08/31 08:47:35;;;;;;;1999.90;999.90;;;;;;;24.55;47.08;99602.78;8314613;28;20115;-78
2022/08/31 08:51:39;;;;;;;1999.90;999.90;;;;;;;24.65;46.64;99619.88;8298083;28;20099;-77
2022/08/31 08:55:42;;;;;;;1999.90;999.90;;;;;;;24.56;46.66;99614.25;8296638;28;20045;-76
2022/08/31 08:59:45;;;;;;;1999.90;999.90;;;;;;;24.47;47.03;99618.31;8280870;28;20053;-76
2022/08/31 09:04:15;;;;;;;1999.90;999.90;;;;;;;24.28;47.17;99615.81;8277367;28;20081;-76
2022/08/31 09:08:23;;;;;;;1999.90;999.90;;;;;;;24.10;47.65;99611.56;8312881;28;20125;-76
2022/08/31 09:12:29;;;;;;;1999.90;999.90;;;;;;;24.05;48.11;99619.75;8297114;28;20116;-76
2022/08/31 09:16:39;;;;;;;1999.90;999.90;;;;;;;23.97;48.34;99623.78;8315701;28;20041;-77
2022/08/31 09:20:41;;;;;;;1999.90;999.90;;;;;;;23.82;48.21;99625.50;8314033;28;20073;-77
2022/08/31 09:24:43;;;;;;;1999.90;999.90;;;;;;;23.73;48.43;99632.16;8298926;28;20657;-77
2022/08/31 09:28:47;;;;;;;1999.90;999.90;;;;;;;23.60;48.37;99636.41;8297703;28;20042;-79
2022/08/31 09:32:56;;;;;;;1999.90;999.90;;;;;;;23.55;49.30;99638.44;8282261;28;20107;-79
2022/08/31 09:37:13;;;;;;;1999.90;999.90;;;;;;;23.44;48.83;99639.00;8290742;28;20068;-78
2022/08/31 09:41:39;;;;;;;1999.90;999.90;;;;;;;23.38;48.83;99633.19;8293373;28;20053;-78
2022/08/31 09:46:02;;;;;;;1999.90;999.90;;;;;;;23.30;49.38;99638.84;8315458;28;20140;-79
2022/08/31 09:50:08;;;;;;;1999.90;999.90;;;;;;;23.32;49.62;99633.47;8319536;28;20067;-79
2022/08/31 09:58:35;;;;;;;1999.90;999.90;;;;;;;23.35;49.33;99631.53;8318812;28;20073;-79
2022/08/31 10:02:41;;;;;;;1999.90;999.90;;;;;;;23.34;49.39;99636.91;8281431;28;20065;-78
2022/08/31 10:06:45;;;;;;;1999.90;999.90;;;;;;;23.34;49.37;99635.13;8286505;28;20110;-78
2022/08/31 10:10:49;;;;;;;1999.90;999.90;;;;;;;23.34;49.71;99629.84;8315171;28;20070;-79
2022/08/31 10:15:01;;;;;;;1999.90;999.90;;;;;;;23.42;49.70;99635.56;8308750;28;20057;-78
2022/08/31 10:19:10;;;;;;;1999.90;999.90;;;;;;;23.46;50.19;99639.75;8316938;28;20053;-77
2022/08/31 10:23:33;;;;;;;1999.90;999.90;;;;;;;23.51;49.69;99643.00;8319312;28;20096;-77
2022/08/31 10:27:41;;;;;;;1999.90;999.90;;;;;;;23.52;49.85;99642.09;8315659;28;20119;-78
2022/08/31 10:31:49;;;;;;;1999.90;999.90;;;;;;;23.58;49.55;99634.78;8316002;28;20064;-77
2022/08/31 10:35:59;;;;;;;1999.90;999.90;;;;;;;23.70;49.19;99642.94;8297421;28;20060;-78
2022/08/31 10:40:18;;;;;;;1999.90;999.90;;;;;;;23.89;48.92;99628.69;8281240;28;20832;-78
2022/08/31 10:44:35;;;;;;;1999.90;999.90;;;;;;;24.21;48.25;99621.56;8299575;28;20060;-78
2022/08/31 10:48:39;;;;;;;1999.90;999.90;;;;;;;24.80;46.41;99620.78;8290291;28;20057;-78
2022/08/31 10:53:04;;;;;;;1999.90;999.90;;;;;;;25.32;45.58;99612.38;8302709;28;20037;-79
2022/08/31 10:57:28;;;;;;;1999.90;999.90;;;;;;;25.71;43.53;99609.06;8298499;28;20330;-78
2022/08/31 11:01:59;;;;;;;1999.90;999.90;;;;;;;26.21;43.58;99602.28;8292756;28;20064;-79
2022/08/31 11:06:28;;;;;;;1999.90;999.90;;;;;;;26.50;42.08;99598.59;8295973;28;20053;-78
2022/08/31 11:10:50;;;;;;;1999.90;999.90;;;;;;;26.86;40.47;99586.41;8259721;28;20057;-78
2022/08/31 11:15:14;;;;;;;1999.90;999.90;;;;;;;27.20;40.24;99578.78;8295069;28;20052;-79
2022/08/31 11:19:30;;;;;;;1999.90;999.90;;;;;;;27.54;39.76;99572.75;8322629;28;20076;-79
2022/08/31 11:23:41;;;;;;;1999.90;999.90;;;;;;;27.87;38.79;99563.31;8309370;28;20037;-79
2022/08/31 11:28:08;;;;;;;1999.90;999.90;;;;;;;27.92;37.63;99567.34;8317280;28;20057;-79
2022/08/31 11:32:20;;;;;;;1999.90;999.90;;;;;;;27.63;38.08;99561.44;8318602;28;20041;-77
2022/08/31 11:36:48;;;;;;;1999.90;999.90;;;;;;;27.45;38.33;99559.22;8305550;28;20127;-79
2022/08/31 11:40:59;;;;;;;1999.90;999.90;;;;;;;27.04;38.73;99545.19;8304686;28;20470;-79
2022/08/31 11:45:04;;;;;;;1999.90;999.90;;;;;;;27.08;38.92;99540.47;8319845;28;20052;-78
2022/08/31 11:49:09;;;;;;;1999.90;999.90;;;;;;;27.18;39.15;99533.56;8317739;28;20395;-78
2022/08/31 11:53:24;;;;;;;1999.90;999.90;;;;;;;27.50;39.26;99525.94;8304290;28;20045;-79
2022/08/31 11:57:30;;;;;;;1999.90;999.90;;;;;;;27.89;38.73;99510.66;8318433;28;20164;-79
2022/08/31 12:01:43;;;;;;;1999.90;999.90;;;;;;;27.84;39.05;99519.03;8319979;28;20466;-79
2022/08/31 12:05:55;;;;;;;1999.90;999.90;;;;;;;27.66;39.30;99521.22;8300936;28;20041;-78
2022/08/31 12:10:05;;;;;;;1999.90;999.90;;;;;;;27.68;39.12;99515.78;8323111;28;20643;-78
2022/08/31 12:14:38;;;;;;;1999.90;999.90;;;;;;;27.54;38.28;99514.06;8321257;28;21668;-78
2022/08/31 12:19:03;;;;;;;1999.90;999.90;;;;;;;27.46;38.08;99503.09;8300973;28;20599;-78
2022/08/31 12:23:39;;;;;;;1999.90;999.90;;;;;;;27.30;38.14;99514.03;8301813;28;20037;-78
2022/08/31 12:28:02;;;;;;;1999.90;999.90;;;;;;;27.23;37.38;99519.88;8299206;28;20042;-78
2022/08/31 12:32:53;;;;;;;1999.90;999.90;;;;;;;27.36;37.79;99502.91;8303383;28;20056;-78
2022/08/31 12:36:54;;;;;;;1999.90;999.90;;;;;;;27.64;37.33;99509.78;8289798;28;20759;-78
2022/08/31 12:40:56;;;;;;;1999.90;999.90;;;;;;;27.88;37.69;99501.81;8304307;28;20072;-79
2022/08/31 12:44:58;;;;;;;1999.90;999.90;;;;;;;28.21;36.22;99490.44;8288393;28;20899;-79
2022/08/31 12:49:22;;;;;;;1999.90;999.90;;;;;;;28.36;36.76;99485.75;8319813;28;20049;-79
2022/08/31 12:53:48;;;;;;;1999.90;999.90;;;;;;;28.17;36.46;99475.59;8318395;28;20950;-78
2022/08/31 12:58:06;;;;;;;1999.90;999.90;;;;;;;27.94;36.22;99484.47;8283036;28;20045;-78
2022/08/31 13:02:11;;;;;;;1999.90;999.90;;;;;;;27.73;36.28;99473.59;8322466;28;20048;-78
2022/08/31 13:06:22;;;;;;;1999.90;999.90;;;;;;;27.84;37.11;99465.66;8299132;28;20042;-78
2022/08/31 13:10:28;;;;;;;1999.90;999.90;;;;;;;27.98;37.16;99467.25;8320898;28;20049;-79
2022/08/31 13:14:39;;;;;;;1999.90;999.90;;;;;;;27.90;37.75;99462.50;8320866;28;20041;-78
2022/08/31 13:18:41;;;;;;;1999.90;999.90;;;;;;;27.65;38.01;99466.16;8305949;28;20148;-79
2022/08/31 13:22:47;;;;;;;;;;;;;;;27.75;38.95;99465.47;8289194;28;20099;-79
2022/08/31 13:27:04;;;;;;;1999.90;999.90;;;;;;;28.13;38.80;99468.78;8308850;28;20020;-79
2022/08/31 13:31:10;;;;;;;1999.90;999.90;;;;;;;28.42;38.15;99465.75;8286502;28;20038;-78
2022/08/31 13:35:18;;;;;;;1999.90;999.90;;;;;;;28.64;37.13;99471.13;8294815;28;20045;-78
2022/08/31 13:39:33;;;;;;;1999.90;999.90;;;;;;;28.70;37.07;99473.31;8319591;28;20670;-78
2022/08/31 13:43:35;;;;;;;1999.90;999.90;;;;;;;28.83;37.31;99460.72;8303498;28;20045;-79
2022/08/31 13:47:38;;;;;;;1999.90;999.90;;;;;;;28.80;36.98;99466.28;8300444;28;20426;-77
2022/08/31 13:51:59;;;;;;;1999.90;999.90;;;;;;;28.77;36.76;99461.19;8318820;28;20118;-78
2022/08/31 13:56:53;;;;;;;1999.90;999.90;;;;;;;28.60;36.70;99456.31;8288468;28;20049;-80
2022/08/31 14:00:42;;;;;;;1999.90;999.90;;;;;;;28.23;37.01;99453.78;8311702;28;20077;-79
2022/08/31 14:04:59;;;;;;;1999.90;999.90;;;;;;;28.21;37.79;99450.38;8319266;28;20437;-78
2022/08/31 14:09:11;;;;;;;1999.90;999.90;;;;;;;28.44;38.08;99439.78;8302237;28;20049;-78
2022/08/31 14:13:23;;;;;;;1999.90;999.90;;;;;;;28.42;37.29;99442.56;8306646;28;20099;-78
2022/08/31 14:17:25;;;;;;;1999.90;999.90;;;;;;;28.63;36.96;99440.03;8323206;28;20041;-78
2022/08/31 14:21:33;;;;;;;1999.90;999.90;;;;;;;28.84;37.59;99443.69;8297483;28;20048;-78
2022/08/31 14:25:34;;;;;;;1999.90;999.90;;;;;;;28.84;36.94;99445.53;8299524;28;20084;-78
2022/08/31 14:29:39;;;;;;;;;;;;;;;28.86;35.77;99440.94;8304134;28;20473;-78
2022/08/31 14:33:42;;;;;;;1999.90;999.90;;;;;;;28.83;35.62;99441.16;8287354;28;19933;-76
2022/08/31 14:37:44;;;;;;;1999.90;999.90;;;;;;;28.50;35.74;99440.13;8320907;28;20152;-78
2022/08/31 14:41:46;;;;;;;1999.90;999.90;;;;;;;28.16;35.65;99438.31;8305213;28;20042;-78
2022/08/31 14:45:49;;;;;;;1999.90;999.90;;;;;;;27.84;35.69;99438.97;8304765;28;20046;-78
2022/08/31 14:49:51;;;;;;;1999.90;999.90;;;;;;;27.62;36.83;99433.47;8282672;28;20041;-78
2022/08/31 14:53:55;;;;;;;;;;;;;;;27.46;36.73;99444.41;8285430;28;20041;-78
2022/08/31 14:58:07;;;;;;;1999.90;999.90;;;;;;;27.24;36.17;99436.25;8301974;28;20015;-78
2022/08/31 15:02:11;;;;;;;1999.90;999.90;;;;;;;27.04;36.72;99427.03;8299080;28;20045;-78
2022/08/31 15:06:16;;;;;;;1999.90;999.90;;;;;;;26.89;37.27;99436.09;8298222;28;20100;-78
2022/08/31 15:10:20;;;;;;;1999.90;999.90;;;;;;;26.70;37.19;99437.38;8317886;28;20367;-78
2022/08/31 15:14:22;;;;;;;1999.90;999.90;;;;;;;26.52;37.64;99444.00;8318162;28;20068;-78
2022/08/31 15:18:24;;;;;;;1999.90;999.90;;;;;;;26.36;38.27;99441.53;8313949;28;20128;-79
2022/08/31 15:22:26;;;;;;;1999.90;999.90;;;;;;;26.28;38.88;99440.34;8308279;28;20041;-79
2022/08/31 15:26:28;;;;;;;1999.90;999.90;;;;;;;26.21;38.41;99447.88;8302596;28;20548;-78
2022/08/31 15:30:32;;;;;;;1999.90;999.90;;;;;;;26.13;38.78;99439.56;8310138;28;20092;-79
2022/08/31 15:34:34;;;;;;;1999.90;999.90;;;;;;;26.07;38.74;99442.66;8299992;28;20050;-79
2022/08/31 15:38:38;;;;;;;1999.90;999.90;;;;;;;26.26;39.00;99435.13;8298043;28;20038;-79
2022/08/31 15:42:40;;;;;;;1999.90;999.90;;;;;;;26.47;38.74;99435.47;8283309;28;20450;-79
2022/08/31 15:51:02;;;;;;;1999.90;999.90;;;;;;;26.48;38.29;99440.69;8311583;28;20443;-79
2022/08/31 15:55:25;;;;;;;1999.90;999.90;;;;;;;26.79;38.38;99450.09;8311921;28;20033;-79
2022/08/31 15:59:27;;;;;;;1999.90;999.90;;;;;;;27.10;37.84;99451.44;8295895;28;20050;-80
2022/08/31 16:03:28;;;;;;;;;;;;;;;26.94;37.79;99450.81;8320293;28;20119;-79
2022/08/31 16:07:36;;;;;;;1999.90;999.90;;;;;;;27.04;38.25;99446.56;8306931;28;19925;-79
2022/08/31 16:11:38;;;;;;;1999.90;999.90;;;;;;;27.35;38.05;99441.69;8307800;28;20870;-80
2022/08/31 16:15:46;;;;;;;1999.90;999.90;;;;;;;27.68;36.94;99446.41;8324706;28;20057;-79
2022/08/31 16:19:49;;;;;;;1999.90;999.90;;;;;;;27.44;36.88;99445.47;8317572;28;20046;-80
2022/08/31 16:23:59;;;;;;;1999.90;999.90;;;;;;;27.04;37.21;99441.22;8306468;28;20041;-78
2022/08/31 16:28:01;;;;;;;1999.90;999.90;;;;;;;26.88;37.70;99434.38;8302768;28;20049;-79
2022/08/31 16:32:05;;;;;;;1999.90;999.90;;;;;;;26.70;37.67;99439.19;8305948;28;20395;-79
2022/08/31 16:36:15;;;;;;;1999.90;999.90;;;;;;;26.44;38.01;99441.03;8313542;28;20152;-79
2022/08/31 16:40:17;;;;;;;1999.90;999.90;;;;;;;26.14;38.28;99439.47;8309920;28;20052;-78
2022/08/31 16:44:19;;;;;;;1999.90;999.90;;;;;;;25.93;38.23;99440.91;8291287;28;20037;-78
2022/08/31 16:52:43;;;;;;;1999.90;999.90;;;;;;;25.47;38.73;99443.03;8317019;28;19924;-78
2022/08/31 16:56:45;;;;;;;1999.90;999.90;;;;;;;25.28;39.00;99446.88;8302291;28;20053;-79
2022/08/31 17:00:54;;;;;;;1999.90;999.90;;;;;;;25.18;39.26;99450.22;8311032;28;20057;-78
2022/08/31 17:04:59;;;;;;;1999.90;999.90;;;;;;;25.06;39.87;99451.00;8304167;28;20069;-78
2022/08/31 17:09:03;;;;;;;1999.90;999.90;;;;;;;24.97;40.18;99447.09;8303317;28;20041;-78
2022/08/31 17:13:06;;;;;;;1999.90;999.90;;;;;;;24.88;40.20;99439.69;8319872;28;20433;-78
2022/08/31 17:17:09;;;;;;;1999.90;999.90;;;;;;;24.75;40.71;99442.25;8304066;28;20060;-78
2022/08/31 17:21:14;;;;;;;1999.90;999.90;;;;;;;24.65;40.41;99439.31;8319873;28;20037;-78
2022/08/31 17:25:17;;;;;;;1999.90;999.90;;;;;;;24.54;40.75;99448.88;8304016;28;20099;-78
2022/08/31 17:29:20;;;;;;;1999.90;999.90;;;;;;;24.40;41.20;99455.84;8299529;28;20041;-78
2022/08/31 17:33:25;;;;;;;1999.90;999.90;;;;;;;24.32;41.08;99458.13;8300258;28;20080;-78
2022/08/31 17:37:35;;;;;;;1999.90;999.90;;;;;;;24.22;41.43;99451.63;8293922;28;20128;-78
2022/08/31 17:41:38;;;;;;;1999.90;999.90;;;;;;;24.09;42.03;99456.81;8300583;28;20133;-78
2022/08/31 17:45:40;;;;;;;1999.90;999.90;;;;;;;23.98;42.00;99450.41;8301627;28;20049;-77
2022/08/31 17:49:42;;;;;;;1999.90;999.90;;;;;;;23.89;41.94;99457.13;8299869;28;20056;-78
2022/08/31 17:53:47;;;;;;;1999.90;999.90;;;;;;;23.80;41.88;99455.84;8319238;28;20069;-78
2022/08/31 17:57:48;;;;;;;1999.90;999.90;;;;;;;23.71;42.23;99458.19;8320619;28;20099;-77
2022/08/31 18:01:52;;;;;;;1999.90;999.90;;;;;;;23.61;42.59;99472.91;8319710;28;20060;-78
2022/08/31 18:05:54;;;;;;;1999.90;999.90;;;;;;;23.47;43.21;99477.13;8302665;28;20069;-78
2022/08/31 18:09:56;;;;;;;1999.90;999.90;;;;;;;23.35;43.62;99477.84;8320131;28;20049;-77
2022/08/31 18:13:57;;;;;;;;;;;;;;;23.22;44.34;99474.16;8298617;28;20048;-77
2022/08/31 18:17:59;;;;;;;1999.90;999.90;;;;;;;23.08;44.98;99484.63;8301143;28;19925;-77
2022/08/31 18:22:01;;;;;;;1999.90;999.90;;;;;;;22.89;45.70;99482.97;8302684;28;20049;-77
2022/08/31 18:26:13;;;;;;;1999.90;999.90;;;;;;;22.70;45.59;99484.00;8314588;28;20042;-77
2022/08/31 18:30:14;;;;;;;1999.90;999.90;;;;;;;22.49;46.92;99488.63;8307777;28;20056;-78
2022/08/31 18:34:20;;;;;;;1999.90;999.90;;;;;;;22.33;47.16;99485.06;8300445;28;20105;-77
2022/08/31 18:38:21;;;;;;;1999.90;999.90;;;;;;;22.20;47.73;99498.88;8321649;28;20049;-79
2022/08/31 18:46:44;;;;;;;1999.90;999.90;;;;;;;21.76;49.20;99506.34;8303274;28;20046;-79